createdAt,value
2022-08-03T00:02:19.436Z,60.04
2022-08-03T00:04:47.607Z,58.64
2022-08-03T00:07:15.551Z,58.93
2022-08-03T00:09:43.370Z,60.37
2022-08-03T00:12:11.406Z,60.39
2022-08-03T00:14:39.210Z,63.08
2022-08-03T00:17:07.056Z,65.39
2022-08-03T00:19:34.888Z,64.00
2022-08-03T00:22:02.808Z,62.65
2022-08-03T00:24:31.490Z,61.80
2022-08-03T00:26:59.377Z,60.89
2022-08-03T00:29:27.250Z,59.87
2022-08-03T00:32:00.361Z,58.49
2022-08-03T00:34:36.443Z,57.85
2022-08-03T00:37:16.620Z,59.77
2022-08-03T00:39:46.402Z,60.42
2022-08-03T00:42:14.827Z,63.21
2022-08-03T00:44:43.858Z,64.58
2022-08-03T00:47:11.955Z,63.18
2022-08-03T00:49:40.882Z,62.38
2022-08-03T00:52:10.026Z,61.62
2022-08-03T00:54:38.581Z,60.73
2022-08-03T00:57:07.345Z,59.91
2022-08-03T00:59:35.305Z,58.28
2022-08-03T01:02:03.337Z,58.78
2022-08-03T01:04:31.170Z,60.21
2022-08-03T01:07:20.301Z,60.83
2022-08-03T01:10:21.962Z,64.72
2022-08-03T01:13:03.947Z,66.11
2022-08-03T01:15:43.256Z,64.74
2022-08-03T01:18:29.343Z,63.37
2022-08-03T01:20:58.150Z,61.87
2022-08-03T01:23:56.756Z,61.54
2022-08-03T01:27:00.081Z,61.20
2022-08-03T01:29:58.340Z,60.92
2022-08-03T01:32:53.593Z,60.48
2022-08-03T01:35:28.127Z,58.78
2022-08-03T01:38:03.700Z,58.63
2022-08-03T01:40:32.479Z,59.47
2022-08-03T01:43:00.519Z,61.08
2022-08-03T01:45:28.349Z,64.38
2022-08-03T01:48:02.103Z,66.01
2022-08-03T01:50:31.091Z,64.72
2022-08-03T01:52:58.996Z,63.34
2022-08-03T01:55:29.701Z,62.03
2022-08-03T01:58:05.874Z,61.38
2022-08-03T02:00:38.102Z,61.08
2022-08-03T02:03:06.374Z,60.85
2022-08-03T02:05:34.180Z,60.83
2022-08-03T02:08:03.152Z,60.59
2022-08-03T02:10:34.524Z,60.14
2022-08-03T02:13:05.458Z,60.11
2022-08-03T02:15:33.333Z,60.40
2022-08-03T02:18:01.376Z,59.93
2022-08-03T02:20:29.273Z,59.69
2022-08-03T02:22:57.136Z,59.85
2022-08-03T02:25:25.069Z,59.44
2022-08-03T02:27:57.075Z,58.24
2022-08-03T02:30:38.671Z,59.14
2022-08-03T02:33:11.360Z,60.79
2022-08-03T02:35:39.279Z,63.98
2022-08-03T02:38:08.516Z,64.70
2022-08-03T02:40:36.436Z,63.64
2022-08-03T02:43:08.580Z,62.60
2022-08-03T02:45:37.628Z,61.89
2022-08-03T02:48:05.786Z,61.22
2022-08-03T02:50:34.077Z,60.82
2022-08-03T02:53:02.005Z,60.52
2022-08-03T02:55:29.919Z,60.23
2022-08-03T02:57:57.876Z,60.14
2022-08-03T03:00:31.504Z,59.91
2022-08-03T03:03:01.228Z,59.86
2022-08-03T03:05:53.597Z,58.64
2022-08-03T03:08:24.236Z,59.00
2022-08-03T03:10:56.601Z,60.44
2022-08-03T03:13:24.484Z,63.95
2022-08-03T03:15:52.462Z,64.88
2022-08-03T03:18:22.896Z,63.45
2022-08-03T03:20:52.299Z,61.91
2022-08-03T03:23:22.151Z,60.78
2022-08-03T03:25:49.999Z,60.26
2022-08-03T03:28:17.849Z,60.04
2022-08-03T03:30:52.828Z,60.06
2022-08-03T03:33:22.227Z,60.15
2022-08-03T03:35:51.730Z,60.10
2022-08-03T03:38:20.120Z,59.69
2022-08-03T03:40:48.088Z,58.55
2022-08-03T03:43:17.046Z,58.96
2022-08-03T03:45:45.203Z,60.71
2022-08-03T03:48:13.222Z,63.61
2022-08-03T03:50:41.227Z,64.48
2022-08-03T03:53:11.224Z,62.74
2022-08-03T03:55:59.581Z,61.12
2022-08-03T03:58:27.066Z,59.91
2022-08-03T04:00:55.009Z,57.26
2022-08-03T04:03:23.044Z,57.98
2022-08-03T04:06:09.054Z,59.14
2022-08-03T04:09:15.245Z,59.78
2022-08-03T04:11:47.456Z,62.90
2022-08-03T04:14:28.854Z,61.77
2022-08-03T04:17:02.980Z,58.41
2022-08-03T04:19:32.902Z,56.93
2022-08-03T04:22:04.121Z,58.03
2022-08-03T04:24:35.441Z,58.93
2022-08-03T04:27:05.380Z,60.33
2022-08-03T04:29:33.928Z,61.50
2022-08-03T04:32:03.069Z,60.93
2022-08-03T04:34:31.280Z,56.97
2022-08-03T04:37:01.016Z,54.54
2022-08-03T04:39:31.580Z,56.79
2022-08-03T04:42:07.831Z,54.74
2022-08-03T04:44:39.497Z,53.62
2022-08-03T04:47:07.683Z,52.28
2022-08-03T04:49:37.751Z,50.96
2022-08-03T04:52:07.797Z,49.07
2022-08-03T04:54:50.111Z,46.65
2022-08-03T04:57:23.089Z,44.87
2022-08-03T05:00:01.494Z,43.11
2022-08-03T05:02:31.493Z,41.28
2022-08-03T05:04:59.893Z,39.24
2022-08-03T05:07:35.606Z,38.06
2022-08-03T05:10:15.670Z,36.46
2022-08-03T05:12:46.085Z,35.60
2022-08-03T05:15:14.301Z,34.55
2022-08-03T05:17:42.905Z,33.65
2022-08-03T05:20:11.302Z,34.30
2022-08-03T05:22:39.465Z,34.69
2022-08-03T05:25:08.255Z,34.06
2022-08-03T05:27:36.210Z,34.49
2022-08-03T05:30:29.627Z,35.25
2022-08-03T05:32:53.830Z,33.21
2022-08-03T05:35:56.194Z,32.02
2022-08-03T05:38:12.450Z,30.81
2022-08-03T05:40:40.523Z,30.40
2022-08-03T05:43:25.537Z,29.67
2022-08-03T05:46:12.083Z,28.72
2022-08-03T05:48:41.922Z,27.23
2022-08-03T05:51:11.910Z,26.61
2022-08-03T05:53:41.909Z,27.05
2022-08-03T05:56:13.942Z,28.06
2022-08-03T05:58:46.874Z,29.66
2022-08-03T06:01:16.812Z,28.29
2022-08-03T06:03:46.487Z,27.53
2022-08-03T06:06:14.634Z,27.17
2022-08-03T06:08:43.239Z,27.22
2022-08-03T06:11:11.485Z,27.34
2022-08-03T06:13:42.776Z,28.75
2022-08-03T06:16:11.110Z,27.92
2022-08-03T06:18:41.934Z,26.38
2022-08-03T06:21:14.759Z,25.18
2022-08-03T06:23:52.905Z,24.07
2022-08-03T06:26:53.496Z,24.25
2022-08-03T06:29:34.166Z,23.32
2022-08-03T06:32:23.047Z,22.42
2022-08-03T06:34:59.140Z,22.06
2022-08-03T06:37:27.363Z,21.32
2022-08-03T06:40:39.617Z,21.45
2022-08-03T06:44:03.653Z,21.04
2022-08-03T06:46:32.538Z,20.99
2022-08-03T06:50:25.992Z,21.01
2022-08-03T06:53:06.024Z,21.80
2022-08-03T06:55:40.741Z,21.09
2022-08-03T06:58:47.737Z,21.61
2022-08-03T07:01:41.657Z,20.61
2022-08-03T07:04:12.518Z,20.59
2022-08-03T07:07:24.088Z,20.33
2022-08-03T07:11:33.526Z,19.86
2022-08-03T07:15:20.610Z,19.61
2022-08-03T07:19:20.476Z,19.53
2022-08-03T07:23:19.794Z,19.75
2022-08-03T07:26:17.485Z,20.31
2022-08-03T07:28:53.050Z,20.56
2022-08-03T07:31:46.705Z,21.47
2022-08-03T07:34:15.404Z,23.01
2022-08-03T07:36:43.530Z,23.40
2022-08-03T07:39:17.768Z,23.45
2022-08-03T07:41:46.783Z,23.73
2022-08-03T07:44:15.057Z,23.97
2022-08-03T07:46:46.424Z,24.13
2022-08-03T07:49:17.458Z,24.08
2022-08-03T07:51:45.723Z,24.74
2022-08-03T07:54:16.493Z,24.57
2022-08-03T07:56:44.451Z,24.65
2022-08-03T07:59:13.029Z,24.64
2022-08-03T08:01:41.397Z,24.39
2022-08-03T08:04:12.719Z,24.11
2022-08-03T08:06:40.933Z,24.01
2022-08-03T08:09:09.486Z,24.81
2022-08-03T08:11:40.071Z,25.42
2022-08-03T08:14:08.349Z,25.49
2022-08-03T08:16:36.323Z,25.92
2022-08-03T08:19:06.896Z,25.63
2022-08-03T08:21:53.122Z,25.55
2022-08-03T08:24:25.372Z,25.47
2022-08-03T08:26:53.324Z,25.21
2022-08-03T08:29:23.441Z,24.83
2022-08-03T08:31:51.401Z,24.59
2022-08-03T08:34:21.955Z,25.13
2022-08-03T08:36:50.163Z,26.34
2022-08-03T08:39:18.371Z,28.18
2022-08-03T08:41:49.625Z,28.26
2022-08-03T08:44:20.988Z,29.16
2022-08-03T08:46:48.931Z,29.19
2022-08-03T08:49:17.613Z,29.99
2022-08-03T08:51:54.791Z,30.97
2022-08-03T08:54:29.177Z,31.50
2022-08-03T08:56:57.584Z,32.09
2022-08-03T08:59:25.528Z,31.80
2022-08-03T09:01:58.383Z,31.73
2022-08-03T09:04:26.850Z,31.40
2022-08-03T09:07:18.756Z,32.44
2022-08-03T09:10:10.604Z,33.16
2022-08-03T09:12:41.982Z,34.33
2022-08-03T09:15:24.410Z,34.37
2022-08-03T09:17:54.807Z,33.96
2022-08-03T09:20:25.844Z,33.98
2022-08-03T09:22:59.530Z,33.91
2022-08-03T09:25:47.782Z,33.90
2022-08-03T09:28:52.469Z,34.19
2022-08-03T09:31:05.208Z,33.98
2022-08-03T09:33:35.943Z,34.69
2022-08-03T09:36:04.490Z,34.35
2022-08-03T09:38:32.525Z,34.72
2022-08-03T09:41:01.049Z,34.53
2022-08-03T09:43:29.061Z,35.02
2022-08-03T09:46:07.870Z,35.09
2022-08-03T09:48:37.473Z,35.27
2022-08-03T09:51:12.956Z,35.12
2022-08-03T09:53:59.416Z,34.76
2022-08-03T09:56:47.747Z,34.76
2022-08-03T09:59:27.951Z,34.68
2022-08-03T10:01:57.180Z,34.09
2022-08-03T10:04:25.474Z,32.65
2022-08-03T10:07:08.613Z,32.11
2022-08-03T10:09:37.273Z,32.47
2022-08-03T10:12:11.735Z,32.90
2022-08-03T10:14:41.916Z,33.10
2022-08-03T10:17:09.936Z,33.03
2022-08-03T10:19:38.174Z,33.43
2022-08-03T10:22:27.953Z,33.27
2022-08-03T10:25:08.477Z,32.80
2022-08-03T10:27:42.785Z,33.03
2022-08-03T10:30:11.719Z,33.44
2022-08-03T10:32:55.200Z,32.87
2022-08-03T10:35:23.958Z,33.10
2022-08-03T10:37:59.698Z,33.90
2022-08-03T10:43:27.836Z,34.85
2022-08-03T10:45:55.634Z,34.21
2022-08-03T10:48:23.478Z,33.80
2022-08-03T10:50:51.413Z,33.87
2022-08-03T10:53:35.796Z,32.98
2022-08-03T10:56:43.739Z,33.14
2022-08-03T10:59:10.963Z,32.93
2022-08-03T11:02:00.371Z,31.48
2022-08-03T11:04:30.619Z,31.41
2022-08-03T11:07:18.474Z,31.48
2022-08-03T11:09:49.121Z,31.23
2022-08-03T11:12:31.376Z,32.17
2022-08-03T11:15:06.618Z,32.70
2022-08-03T11:17:46.623Z,33.19
2022-08-03T11:20:56.725Z,33.27
2022-08-03T11:24:04.541Z,34.63
2022-08-03T11:26:34.443Z,35.24
2022-08-03T11:29:28.740Z,35.56
2022-08-03T11:31:56.683Z,35.14
2022-08-03T11:34:25.020Z,34.85
2022-08-03T11:37:24.507Z,34.87
2022-08-03T11:39:54.918Z,34.53
2022-08-03T11:42:23.225Z,35.34
2022-08-03T11:44:55.737Z,34.60
2022-08-03T11:47:27.313Z,33.34
2022-08-03T11:49:59.126Z,34.32
2022-08-03T11:52:28.755Z,34.39
2022-08-03T11:54:57.526Z,35.08
2022-08-03T11:59:13.241Z,34.39
2022-08-03T12:00:25.941Z,33.29
2022-08-03T12:02:57.744Z,34.59
2022-08-03T12:05:51.212Z,33.70
2022-08-03T12:08:32.391Z,32.37
2022-08-03T12:11:04.619Z,32.55
2022-08-03T12:14:33.127Z,34.05
2022-08-03T12:16:28.769Z,32.66
2022-08-03T12:19:00.359Z,32.23
2022-08-03T12:21:28.997Z,32.84
2022-08-03T12:24:02.322Z,33.04
2022-08-03T12:26:31.218Z,33.16
2022-08-03T12:28:59.337Z,32.05
2022-08-03T12:31:27.381Z,32.71
2022-08-03T12:34:04.517Z,32.72
2022-08-03T12:36:34.664Z,32.49
2022-08-03T12:39:09.185Z,32.64
2022-08-03T12:41:39.383Z,32.83
2022-08-03T12:44:08.993Z,33.45
2022-08-03T12:46:47.081Z,35.03
2022-08-03T12:49:17.461Z,34.99
2022-08-03T12:51:45.552Z,35.35
2022-08-03T12:54:24.731Z,35.59
2022-08-03T12:57:15.633Z,35.52
2022-08-03T12:59:53.891Z,35.36
2022-08-03T13:02:23.689Z,35.62
2022-08-03T13:04:53.561Z,36.51
2022-08-03T13:07:22.301Z,36.69
2022-08-03T13:09:53.261Z,35.85
2022-08-03T13:12:22.648Z,35.69
2022-08-03T13:14:56.796Z,35.34
2022-08-03T13:17:25.070Z,35.24
2022-08-03T13:19:53.640Z,33.48
2022-08-03T13:22:31.138Z,33.24
2022-08-03T13:25:00.965Z,34.10
2022-08-03T13:28:12.470Z,33.79
2022-08-03T13:30:30.059Z,33.35
2022-08-03T13:33:00.191Z,33.35
2022-08-03T13:35:28.086Z,33.01
2022-08-03T13:37:55.904Z,33.92
2022-08-03T13:40:30.650Z,35.17
2022-08-03T13:43:02.468Z,34.53
2022-08-03T13:45:30.605Z,34.58
2022-08-03T13:47:58.534Z,34.55
2022-08-03T13:50:26.436Z,34.60
2022-08-03T13:52:54.311Z,34.34
2022-08-03T13:55:22.578Z,34.22
2022-08-03T13:58:19.057Z,33.17
2022-08-03T14:00:39.844Z,33.31
2022-08-03T14:03:15.360Z,32.95
2022-08-03T14:05:44.015Z,33.14
2022-08-03T14:08:12.273Z,33.20
2022-08-03T14:10:43.029Z,33.40
2022-08-03T14:13:12.645Z,32.27
2022-08-03T14:15:50.320Z,32.10
2022-08-03T14:18:28.925Z,31.58
2022-08-03T14:21:06.707Z,31.78
2022-08-03T14:23:36.069Z,32.11
2022-08-03T14:26:05.832Z,31.21
2022-08-03T14:28:33.796Z,31.02
2022-08-03T14:31:01.934Z,30.49
2022-08-03T14:33:29.822Z,31.56
2022-08-03T14:35:57.978Z,32.88
2022-08-03T14:38:25.867Z,32.13
2022-08-03T14:40:53.796Z,32.60
2022-08-03T14:43:21.672Z,31.51
2022-08-03T14:45:53.892Z,31.30
2022-08-03T14:50:30.922Z,32.48
2022-08-03T14:51:11.645Z,33.13
2022-08-03T14:53:39.598Z,32.48
2022-08-03T14:56:10.488Z,32.32
2022-08-03T14:58:39.003Z,31.72
2022-08-03T15:02:02.948Z,31.85
2022-08-03T15:03:58.448Z,32.53
2022-08-03T15:06:26.363Z,32.12
2022-08-03T15:09:24.423Z,31.93
2022-08-03T15:11:42.974Z,31.68
2022-08-03T15:14:10.937Z,32.11
2022-08-03T15:16:41.670Z,32.60
2022-08-03T15:20:01.242Z,33.09
2022-08-03T15:21:57.438Z,33.15
2022-08-03T15:24:29.400Z,32.07
2022-08-03T15:26:57.262Z,32.20
2022-08-03T15:30:06.901Z,33.01
2022-08-03T15:32:13.212Z,33.33
2022-08-03T15:34:41.139Z,33.05
2022-08-03T15:37:20.109Z,33.12
2022-08-03T15:39:58.967Z,33.39
2022-08-03T15:42:29.907Z,34.04
2022-08-03T15:44:57.891Z,33.55
2022-08-03T15:47:26.205Z,33.40
2022-08-03T15:49:54.184Z,33.74
2022-08-03T15:52:22.071Z,33.67
2022-08-03T15:54:49.974Z,33.16
2022-08-03T15:57:18.010Z,33.44
2022-08-03T15:59:46.051Z,34.00
2022-08-03T16:02:13.992Z,34.48
2022-08-03T16:04:42.093Z,34.16
2022-08-03T16:07:12.890Z,34.63
2022-08-03T16:09:42.728Z,34.05
2022-08-03T16:12:15.761Z,33.87
2022-08-03T16:14:54.179Z,34.70
2022-08-03T16:17:23.698Z,34.98
2022-08-03T16:19:54.103Z,35.28
2022-08-03T16:22:24.551Z,35.31
2022-08-03T16:24:53.528Z,34.85
2022-08-03T16:27:56.912Z,34.54
2022-08-03T16:30:16.681Z,35.05
2022-08-03T16:32:45.542Z,35.52
2022-08-03T16:35:19.472Z,35.15
2022-08-03T16:37:56.215Z,36.62
2022-08-03T16:40:25.202Z,37.12
2022-08-03T16:42:53.152Z,36.92
2022-08-03T16:45:21.165Z,38.18
2022-08-03T16:47:49.089Z,38.57
2022-08-03T16:50:34.723Z,38.76
2022-08-03T16:53:09.864Z,39.24
2022-08-03T16:55:43.534Z,38.84
2022-08-03T16:58:24.361Z,38.92
2022-08-03T17:01:10.905Z,39.30
2022-08-03T17:04:02.478Z,38.56
2022-08-03T17:06:36.875Z,38.14
2022-08-03T17:09:15.476Z,38.52
2022-08-03T17:11:47.700Z,38.91
2022-08-03T17:14:22.591Z,40.77
2022-08-03T17:16:53.841Z,42.20
2022-08-03T17:19:23.726Z,42.93
2022-08-03T17:22:10.978Z,43.02
2022-08-03T17:24:44.608Z,43.19
2022-08-03T17:28:48.843Z,43.83
2022-08-03T17:30:12.214Z,43.75
2022-08-03T17:32:56.872Z,44.44
2022-08-03T17:35:34.483Z,44.70
2022-08-03T17:38:12.092Z,44.85
2022-08-03T17:40:48.235Z,45.30
2022-08-03T17:44:14.247Z,45.73
2022-08-03T17:46:10.756Z,46.17
2022-08-03T17:48:41.377Z,46.50
2022-08-03T17:51:50.056Z,46.76
2022-08-03T17:54:27.173Z,46.82
2022-08-03T17:57:22.349Z,47.65
2022-08-03T18:00:27.574Z,48.08
2022-08-03T18:03:22.540Z,48.48
2022-08-03T18:06:10.987Z,49.05
2022-08-03T18:08:54.217Z,50.24
2022-08-03T18:11:24.135Z,50.98
2022-08-03T18:14:16.463Z,50.97
2022-08-03T18:17:10.558Z,51.00
2022-08-03T18:20:03.606Z,52.61
2022-08-03T18:22:27.555Z,52.73
2022-08-03T18:24:58.475Z,53.07
2022-08-03T18:27:42.519Z,53.56
2022-08-03T18:30:15.431Z,54.89
2022-08-03T18:32:44.054Z,55.16
2022-08-03T18:35:53.914Z,55.26
2022-08-03T18:38:18.776Z,55.46
2022-08-03T18:40:48.771Z,55.88
2022-08-03T18:43:18.883Z,56.29
2022-08-03T18:45:57.663Z,56.84
2022-08-03T18:49:08.260Z,57.17
2022-08-03T18:51:43.216Z,56.91
2022-08-03T18:55:14.063Z,57.33
2022-08-03T18:58:17.682Z,57.18
2022-08-03T19:01:57.256Z,57.60
2022-08-03T19:04:15.669Z,58.06
2022-08-03T19:06:46.161Z,58.42
2022-08-03T19:09:39.731Z,58.87
2022-08-03T19:12:32.331Z,59.12
2022-08-03T19:15:12.828Z,59.63
2022-08-03T19:17:52.936Z,60.84
2022-08-03T19:20:28.253Z,60.56
2022-08-03T19:22:57.399Z,60.98
2022-08-03T19:25:34.599Z,62.70
2022-08-03T19:28:06.029Z,65.31
2022-08-03T19:30:46.424Z,63.39
2022-08-03T19:33:22.687Z,61.90
2022-08-03T19:35:55.116Z,58.74
2022-08-03T19:38:29.114Z,56.89
2022-08-03T19:41:01.057Z,57.27
2022-08-03T19:43:52.671Z,57.83
2022-08-03T19:46:30.379Z,58.45
2022-08-03T19:49:15.836Z,59.47
2022-08-03T19:51:58.284Z,59.71
2022-08-03T19:54:45.846Z,60.17
2022-08-03T19:57:29.830Z,60.47
2022-08-03T19:59:58.438Z,63.76
2022-08-03T20:02:33.805Z,65.50
2022-08-03T20:05:01.774Z,64.00
2022-08-03T20:07:32.150Z,62.28
2022-08-03T20:10:02.119Z,59.72
2022-08-03T20:12:33.165Z,57.90
2022-08-03T20:15:05.700Z,58.00
2022-08-03T20:17:54.397Z,59.53
2022-08-03T20:20:24.450Z,60.44
2022-08-03T20:22:57.672Z,60.92
2022-08-03T20:25:38.027Z,62.75
2022-08-03T20:28:14.302Z,64.88
2022-08-03T20:30:47.286Z,63.38
2022-08-03T20:33:18.754Z,61.87
2022-08-03T20:35:49.627Z,61.11
2022-08-03T20:38:18.957Z,58.21
2022-08-03T20:40:48.185Z,56.96
2022-08-03T20:43:16.636Z,57.33
2022-08-03T20:45:59.014Z,58.16
2022-08-03T20:48:36.588Z,58.82
2022-08-03T20:51:05.704Z,60.10
2022-08-03T20:53:57.065Z,63.08
2022-08-03T20:56:35.362Z,64.69
2022-08-03T20:59:06.081Z,62.95
2022-08-03T21:01:36.612Z,60.61
2022-08-03T21:04:09.291Z,58.45
2022-08-03T21:06:57.862Z,57.42
2022-08-03T21:09:33.395Z,57.99
2022-08-03T21:12:08.509Z,59.08
2022-08-03T21:14:47.951Z,60.18
2022-08-03T21:17:38.310Z,62.43
2022-08-03T21:20:10.322Z,64.23
2022-08-03T21:22:39.971Z,62.07
2022-08-03T21:25:09.447Z,61.13
2022-08-03T21:27:37.435Z,58.85
2022-08-03T21:30:08.463Z,57.88
2022-08-03T21:32:40.326Z,58.08
2022-08-03T21:35:10.697Z,59.25
2022-08-03T21:37:39.769Z,60.34
2022-08-03T21:40:09.539Z,63.20
2022-08-03T21:42:41.372Z,64.93
2022-08-03T21:45:16.862Z,63.39
2022-08-03T21:47:45.404Z,61.64
2022-08-03T21:50:13.571Z,59.96
2022-08-03T21:52:46.853Z,57.95
2022-08-03T21:55:20.658Z,57.53
2022-08-03T21:57:53.456Z,59.14
2022-08-03T22:00:23.325Z,60.11
2022-08-03T22:02:55.657Z,59.82
2022-08-03T22:05:42.990Z,63.29
2022-08-03T22:08:13.492Z,66.07
2022-08-03T22:10:43.975Z,63.33
2022-08-03T22:13:13.605Z,61.28
2022-08-03T22:15:42.001Z,60.34
2022-08-03T22:18:10.076Z,57.72
2022-08-03T22:20:38.067Z,57.30
2022-08-03T22:23:06.672Z,58.32
2022-08-03T22:25:36.945Z,60.05
2022-08-03T22:28:10.757Z,60.36
2022-08-03T22:30:39.261Z,62.87
2022-08-03T22:33:11.659Z,64.74
2022-08-03T22:35:46.415Z,62.96
2022-08-03T22:38:19.406Z,61.36
2022-08-03T22:40:49.022Z,60.15
2022-08-03T22:43:21.797Z,57.89
2022-08-03T22:46:09.193Z,57.30
2022-08-03T22:48:40.733Z,58.28
2022-08-03T22:51:10.291Z,59.44
2022-08-03T22:53:38.860Z,60.43
2022-08-03T22:56:06.880Z,63.50
2022-08-03T22:58:34.824Z,64.65
2022-08-03T23:01:08.171Z,63.48
2022-08-03T23:03:59.923Z,61.97
2022-08-03T23:06:32.907Z,60.08
2022-08-03T23:09:11.687Z,57.83
2022-08-03T23:11:45.253Z,57.94
2022-08-03T23:14:15.593Z,56.94
2022-08-03T23:16:45.078Z,59.16
2022-08-03T23:19:17.032Z,60.40
2022-08-03T23:22:02.513Z,63.80
2022-08-03T23:24:38.220Z,65.47
2022-08-03T23:27:07.719Z,63.31
2022-08-03T23:29:37.169Z,61.60
2022-08-03T23:32:06.112Z,60.72
2022-08-03T23:34:53.450Z,58.91
2022-08-03T23:37:21.416Z,57.71
2022-08-03T23:39:49.908Z,58.56
2022-08-03T23:42:19.732Z,59.66
2022-08-03T23:44:49.311Z,60.59
2022-08-03T23:47:17.292Z,63.53
2022-08-03T23:49:45.192Z,65.24
2022-08-03T23:52:34.332Z,63.86
2022-08-03T23:55:22.791Z,62.54
2022-08-03T23:58:14.906Z,60.60
